This is the latest recevied weather packets stored in our database for station/object DA2PK. If no packets are shown the sender has not sent any weather packets the latest 10 day(s).
| Time | Temp. | Humidity | Pressure | Rain* | Wind** | Luminosity | Snow |
|---|---|---|---|---|---|---|---|
| 1777704619 | 16.67° C | 48% | 1019.5 hPa | 0 mm | - | 269 W/m² | - |
| 1777704018 | 16.11° C | 49% | 1019.5 hPa | 0 mm | - | 201 W/m² | - |
| 1777701019 | 15° C | 53% | 1019.7 hPa | 0 mm | - | 106 W/m² | - |
| 1777697438 | 13.89° C | 54% | 1019.4 hPa | 0 mm | - | 24 W/m² | - |
| 1777695659 | 13.33° C | 53% | 1019.5 hPa | 0 mm | - | 9 W/m² | - |
| 1777693820 | 13.89° C | 54% | 1019.7 hPa | 0 mm | - | 1 W/m² | - |
| 1777689017 | 14.44° C | 50% | 1020.1 hPa | 0 mm | - | 0 W/m² | - |
| 1777684818 | 15° C | 48% | 1020.5 hPa | 0 mm | - | 0 W/m² | - |
| 1777683618 | 15° C | 48% | 1020.9 hPa | 0 mm | - | 0 W/m² | - |
| 1777680018 | 15.56° C | 46% | 1021.3 hPa | 0 mm | - | 0 W/m² | - |
| 1777679419 | 15.56° C | 45% | 1021.4 hPa | 0 mm | - | 0 W/m² | - |
| 1777678818 | 15.56° C | 44% | 1021.5 hPa | 0 mm | - | 0 W/m² | - |
| 1777671641 | 17.22° C | 41% | 1021.8 hPa | 0 mm | - | 0 W/m² | - |
| 1777670420 | 17.22° C | 41% | 1021.7 hPa | 0 mm | - | 0 W/m² | - |
| 1777665019 | 18.33° C | 40% | 1021.9 hPa | 0 mm | - | 0 W/m² | - |
| 1777660819 | 19.44° C | 36% | 1021.9 hPa | 0 mm | - | 10 W/m² | - |
| 1777659018 | 20.56° C | 34% | 1021.9 hPa | 0 mm | - | 24 W/m² | - |
| 1777657820 | 21.11° C | 32% | 1021.7 hPa | 0 mm | - | 30 W/m² | - |
| 1777653017 | 22.78° C | 27% | 1022.1 hPa | 0 mm | - | 254 W/m² | - |
| 1777651218 | 23.33° C | 26% | 1022.2 hPa | 0 mm | - | 318 W/m² | - |
| 1777645237 | 22.78° C | 26% | 1023.1 hPa | 0 mm | - | 535 W/m² | - |
| 1777643418 | 22.78° C | 27% | 1023.4 hPa | 0 mm | - | 580 W/m² | - |
| 1777642818 | 22.22° C | 26% | 1023.6 hPa | 0 mm | - | 593 W/m² | - |
| 1777641039 | 21.67° C | 27% | 1024.1 hPa | 0 mm | - | 628 W/m² | - |
| 1777632618 | 18.33° C | 29% | 1025.7 hPa | 0 mm | - | 646 W/m² | - |
* Rain latest hour (hover to see other rain measurements)
** Current wind speed in m/s (hover to see current wind gust speed)